sensor_id;sensor_type;location;lat;lon;timestamp;temperature;humidity
18317;DHT22;9284;52.298;21.164;2023-08-17T00:01:45;23.30;99.90
18317;DHT22;9284;52.298;21.164;2023-08-17T00:04:14;23.30;99.90
18317;DHT22;9284;52.298;21.164;2023-08-17T00:06:42;23.30;99.90
18317;DHT22;9284;52.298;21.164;2023-08-17T00:09:10;23.30;99.90
18317;DHT22;9284;52.298;21.164;2023-08-17T00:11:39;23.30;99.90
18317;DHT22;9284;52.298;21.164;2023-08-17T00:14:09;23.30;1.00
18317;DHT22;9284;52.298;21.164;2023-08-17T00:16:38;23.30;1.00
18317;DHT22;9284;52.298;21.164;2023-08-17T00:19:06;23.20;1.00
18317;DHT22;9284;52.298;21.164;2023-08-17T00:21:35;23.20;1.00
18317;DHT22;9284;52.298;21.164;2023-08-17T00:24:04;23.20;1.00
18317;DHT22;9284;52.298;21.164;2023-08-17T00:26:32;23.10;1.00
18317;DHT22;9284;52.298;21.164;2023-08-17T00:29:01;23.10;1.00
18317;DHT22;9284;52.298;21.164;2023-08-17T00:31:31;23.10;1.00
18317;DHT22;9284;52.298;21.164;2023-08-17T00:33:59;23.20;1.00
18317;DHT22;9284;52.298;21.164;2023-08-17T00:36:27;23.10;1.00
18317;DHT22;9284;52.298;21.164;2023-08-17T00:38:55;23.10;1.00
18317;DHT22;9284;52.298;21.164;2023-08-17T00:41:24;23.10;1.00
18317;DHT22;9284;52.298;21.164;2023-08-17T00:43:52;23.10;1.00
18317;DHT22;9284;52.298;21.164;2023-08-17T00:46:21;23.10;1.00
18317;DHT22;9284;52.298;21.164;2023-08-17T00:48:51;23.10;16.70
18317;DHT22;9284;52.298;21.164;2023-08-17T00:51:22;23.00;18.50
18317;DHT22;9284;52.298;21.164;2023-08-17T00:53:51;23.00;1.00
18317;DHT22;9284;52.298;21.164;2023-08-17T00:56:21;23.00;45.80
18317;DHT22;9284;52.298;21.164;2023-08-17T00:58:49;23.00;97.30
18317;DHT22;9284;52.298;21.164;2023-08-17T01:01:19;23.00;99.90
18317;DHT22;9284;52.298;21.164;2023-08-17T01:03:48;22.90;99.90
18317;DHT22;9284;52.298;21.164;2023-08-17T01:06:18;22.90;99.90
18317;DHT22;9284;52.298;21.164;2023-08-17T01:08:47;22.90;99.90
18317;DHT22;9284;52.298;21.164;2023-08-17T01:11:24;22.90;1.00
18317;DHT22;9284;52.298;21.164;2023-08-17T01:13:56;22.80;99.90
18317;DHT22;9284;52.298;21.164;2023-08-17T01:16:29;22.80;99.90
18317;DHT22;9284;52.298;21.164;2023-08-17T01:19:00;22.80;1.00
18317;DHT22;9284;52.298;21.164;2023-08-17T01:21:36;22.70;1.00
18317;DHT22;9284;52.298;21.164;2023-08-17T01:24:07;22.80;1.00
18317;DHT22;9284;52.298;21.164;2023-08-17T01:26:36;22.70;99.90
18317;DHT22;9284;52.298;21.164;2023-08-17T01:29:04;22.70;1.00
18317;DHT22;9284;52.298;21.164;2023-08-17T01:31:39;22.60;1.00
18317;DHT22;9284;52.298;21.164;2023-08-17T01:34:10;22.70;1.00
18317;DHT22;9284;52.298;21.164;2023-08-17T01:36:45;22.70;1.00
18317;DHT22;9284;52.298;21.164;2023-08-17T01:39:16;22.60;99.90
18317;DHT22;9284;52.298;21.164;2023-08-17T01:41:46;22.60;1.00
18317;DHT22;9284;52.298;21.164;2023-08-17T01:44:15;22.60;1.00
18317;DHT22;9284;52.298;21.164;2023-08-17T01:46:44;22.60;1.00
18317;DHT22;9284;52.298;21.164;2023-08-17T01:49:12;22.60;1.00
18317;DHT22;9284;52.298;21.164;2023-08-17T01:51:40;22.50;1.00
18317;DHT22;9284;52.298;21.164;2023-08-17T01:54:09;22.50;1.00
18317;DHT22;9284;52.298;21.164;2023-08-17T01:56:39;22.50;37.50
18317;DHT22;9284;52.298;21.164;2023-08-17T01:59:07;22.40;99.90
18317;DHT22;9284;52.298;21.164;2023-08-17T02:01:35;22.50;99.90
18317;DHT22;9284;52.298;21.164;2023-08-17T02:04:04;22.40;46.40
18317;DHT22;9284;52.298;21.164;2023-08-17T02:06:32;22.40;99.90
18317;DHT22;9284;52.298;21.164;2023-08-17T02:09:00;22.40;99.90
18317;DHT22;9284;52.298;21.164;2023-08-17T02:11:29;22.40;99.90
18317;DHT22;9284;52.298;21.164;2023-08-17T02:13:58;22.30;99.90
18317;DHT22;9284;52.298;21.164;2023-08-17T02:16:27;22.30;99.90
18317;DHT22;9284;52.298;21.164;2023-08-17T02:18:55;22.30;99.90
18317;DHT22;9284;52.298;21.164;2023-08-17T02:21:24;22.30;99.90
18317;DHT22;9284;52.298;21.164;2023-08-17T02:23:53;22.30;99.90
18317;DHT22;9284;52.298;21.164;2023-08-17T02:26:22;22.20;1.00
18317;DHT22;9284;52.298;21.164;2023-08-17T02:28:50;22.20;1.00
18317;DHT22;9284;52.298;21.164;2023-08-17T02:31:20;22.20;1.00
18317;DHT22;9284;52.298;21.164;2023-08-17T02:33:48;22.20;1.00
18317;DHT22;9284;52.298;21.164;2023-08-17T02:36:17;22.20;1.00
18317;DHT22;9284;52.298;21.164;2023-08-17T02:38:45;22.20;1.00
18317;DHT22;9284;52.298;21.164;2023-08-17T02:41:13;22.20;1.00
18317;DHT22;9284;52.298;21.164;2023-08-17T02:43:42;22.20;1.00
18317;DHT22;9284;52.298;21.164;2023-08-17T02:46:12;22.10;1.00
18317;DHT22;9284;52.298;21.164;2023-08-17T02:48:42;22.20;1.00
18317;DHT22;9284;52.298;21.164;2023-08-17T02:51:10;22.10;1.00
18317;DHT22;9284;52.298;21.164;2023-08-17T02:53:38;22.10;1.00
18317;DHT22;9284;52.298;21.164;2023-08-17T02:56:06;22.20;1.00
18317;DHT22;9284;52.298;21.164;2023-08-17T02:58:38;22.20;1.00
18317;DHT22;9284;52.298;21.164;2023-08-17T03:01:08;22.20;1.00
18317;DHT22;9284;52.298;21.164;2023-08-17T03:03:37;22.10;1.00
18317;DHT22;9284;52.298;21.164;2023-08-17T03:06:07;22.20;1.00
18317;DHT22;9284;52.298;21.164;2023-08-17T03:08:35;22.10;1.00
18317;DHT22;9284;52.298;21.164;2023-08-17T03:11:03;22.10;1.00
18317;DHT22;9284;52.298;21.164;2023-08-17T03:13:34;22.10;1.00
18317;DHT22;9284;52.298;21.164;2023-08-17T03:16:02;22.10;1.00
18317;DHT22;9284;52.298;21.164;2023-08-17T03:18:31;22.10;1.00
18317;DHT22;9284;52.298;21.164;2023-08-17T03:20:59;22.10;1.00
18317;DHT22;9284;52.298;21.164;2023-08-17T03:23:29;22.00;1.00
18317;DHT22;9284;52.298;21.164;2023-08-17T03:25:58;22.00;1.00
18317;DHT22;9284;52.298;21.164;2023-08-17T03:28:27;22.00;1.00
18317;DHT22;9284;52.298;21.164;2023-08-17T03:30:55;22.00;99.90
18317;DHT22;9284;52.298;21.164;2023-08-17T03:33:24;22.00;45.70
18317;DHT22;9284;52.298;21.164;2023-08-17T03:35:53;22.00;23.10
18317;DHT22;9284;52.298;21.164;2023-08-17T03:38:21;22.00;1.00
18317;DHT22;9284;52.298;21.164;2023-08-17T03:40:51;21.90;99.90
18317;DHT22;9284;52.298;21.164;2023-08-17T03:43:22;21.90;99.90
18317;DHT22;9284;52.298;21.164;2023-08-17T03:45:50;21.90;1.00
18317;DHT22;9284;52.298;21.164;2023-08-17T03:48:19;21.90;1.00
18317;DHT22;9284;52.298;21.164;2023-08-17T03:50:51;21.90;1.00
18317;DHT22;9284;52.298;21.164;2023-08-17T03:53:19;21.90;1.00
18317;DHT22;9284;52.298;21.164;2023-08-17T03:55:48;21.90;99.90
18317;DHT22;9284;52.298;21.164;2023-08-17T03:58:18;21.90;46.10
18317;DHT22;9284;52.298;21.164;2023-08-17T04:00:49;21.90;1.00
18317;DHT22;9284;52.298;21.164;2023-08-17T04:03:23;22.00;1.00
18317;DHT22;9284;52.298;21.164;2023-08-17T04:05:52;22.00;1.00
18317;DHT22;9284;52.298;21.164;2023-08-17T04:08:20;22.00;1.00
18317;DHT22;9284;52.298;21.164;2023-08-17T04:10:48;22.00;1.00
18317;DHT22;9284;52.298;21.164;2023-08-17T04:13:18;22.00;1.00
18317;DHT22;9284;52.298;21.164;2023-08-17T04:15:46;22.00;1.00
18317;DHT22;9284;52.298;21.164;2023-08-17T04:18:15;22.10;1.00
18317;DHT22;9284;52.298;21.164;2023-08-17T04:20:43;22.10;1.00
18317;DHT22;9284;52.298;21.164;2023-08-17T04:23:14;22.20;1.00
18317;DHT22;9284;52.298;21.164;2023-08-17T04:25:43;22.20;1.00
18317;DHT22;9284;52.298;21.164;2023-08-17T04:28:11;22.20;1.00
18317;DHT22;9284;52.298;21.164;2023-08-17T04:30:44;22.30;1.00
18317;DHT22;9284;52.298;21.164;2023-08-17T04:33:12;22.30;1.00
18317;DHT22;9284;52.298;21.164;2023-08-17T04:35:41;22.40;1.00
18317;DHT22;9284;52.298;21.164;2023-08-17T04:38:09;22.40;1.00
18317;DHT22;9284;52.298;21.164;2023-08-17T04:40:38;22.50;99.90
18317;DHT22;9284;52.298;21.164;2023-08-17T04:43:09;22.50;1.00
18317;DHT22;9284;52.298;21.164;2023-08-17T04:45:38;22.50;1.00
18317;DHT22;9284;52.298;21.164;2023-08-17T04:48:08;22.70;1.00
18317;DHT22;9284;52.298;21.164;2023-08-17T04:50:36;22.80;99.90
18317;DHT22;9284;52.298;21.164;2023-08-17T04:53:05;22.90;99.90
18317;DHT22;9284;52.298;21.164;2023-08-17T04:55:34;23.00;99.90
18317;DHT22;9284;52.298;21.164;2023-08-17T04:58:02;23.00;98.80
18317;DHT22;9284;52.298;21.164;2023-08-17T05:00:31;23.10;1.00
18317;DHT22;9284;52.298;21.164;2023-08-17T05:03:00;23.20;1.00
18317;DHT22;9284;52.298;21.164;2023-08-17T05:05:35;23.30;1.00
18317;DHT22;9284;52.298;21.164;2023-08-17T05:08:08;23.40;1.00
18317;DHT22;9284;52.298;21.164;2023-08-17T05:10:37;23.50;1.00
18317;DHT22;9284;52.298;21.164;2023-08-17T05:13:05;23.50;1.00
18317;DHT22;9284;52.298;21.164;2023-08-17T05:15:33;23.50;1.00
18317;DHT22;9284;52.298;21.164;2023-08-17T05:18:05;23.50;99.90
18317;DHT22;9284;52.298;21.164;2023-08-17T05:20:35;23.50;99.90
18317;DHT22;9284;52.298;21.164;2023-08-17T05:23:03;23.60;99.90
18317;DHT22;9284;52.298;21.164;2023-08-17T05:25:32;23.70;18.10
18317;DHT22;9284;52.298;21.164;2023-08-17T05:28:01;23.60;99.90
18317;DHT22;9284;52.298;21.164;2023-08-17T05:30:29;23.70;1.00
18317;DHT22;9284;52.298;21.164;2023-08-17T05:32:57;23.80;1.00
18317;DHT22;9284;52.298;21.164;2023-08-17T05:35:26;23.80;1.00
18317;DHT22;9284;52.298;21.164;2023-08-17T05:37:56;23.80;1.00
18317;DHT22;9284;52.298;21.164;2023-08-17T05:40:25;23.90;1.00
18317;DHT22;9284;52.298;21.164;2023-08-17T05:42:53;23.90;1.00
18317;DHT22;9284;52.298;21.164;2023-08-17T05:45:22;24.00;1.00
18317;DHT22;9284;52.298;21.164;2023-08-17T05:47:51;24.10;1.00
18317;DHT22;9284;52.298;21.164;2023-08-17T05:50:20;24.10;1.00
18317;DHT22;9284;52.298;21.164;2023-08-17T05:52:48;24.20;1.00
18317;DHT22;9284;52.298;21.164;2023-08-17T05:55:18;24.20;1.00
18317;DHT22;9284;52.298;21.164;2023-08-17T05:57:46;24.30;1.00
18317;DHT22;9284;52.298;21.164;2023-08-17T06:00:14;24.40;1.00
18317;DHT22;9284;52.298;21.164;2023-08-17T06:02:43;24.40;99.90
18317;DHT22;9284;52.298;21.164;2023-08-17T06:05:17;24.60;99.90
18317;DHT22;9284;52.298;21.164;2023-08-17T06:07:45;24.70;99.90
18317;DHT22;9284;52.298;21.164;2023-08-17T06:10:13;24.80;99.90
18317;DHT22;9284;52.298;21.164;2023-08-17T06:12:43;24.90;99.90
18317;DHT22;9284;52.298;21.164;2023-08-17T06:15:13;25.00;99.90
18317;DHT22;9284;52.298;21.164;2023-08-17T06:17:42;25.20;99.90
18317;DHT22;9284;52.298;21.164;2023-08-17T06:20:11;25.30;99.90
18317;DHT22;9284;52.298;21.164;2023-08-17T06:22:40;25.60;99.90
18317;DHT22;9284;52.298;21.164;2023-08-17T06:25:09;25.70;99.90
18317;DHT22;9284;52.298;21.164;2023-08-17T06:27:38;25.90;83.60
18317;DHT22;9284;52.298;21.164;2023-08-17T06:30:10;26.00;52.30
18317;DHT22;9284;52.298;21.164;2023-08-17T06:32:39;26.00;34.80
18317;DHT22;9284;52.298;21.164;2023-08-17T06:35:08;26.20;27.30
18317;DHT22;9284;52.298;21.164;2023-08-17T06:37:37;26.40;13.30
18317;DHT22;9284;52.298;21.164;2023-08-17T06:40:06;26.60;1.00
18317;DHT22;9284;52.298;21.164;2023-08-17T06:42:36;26.70;1.00
18317;DHT22;9284;52.298;21.164;2023-08-17T06:45:08;27.10;1.00
18317;DHT22;9284;52.298;21.164;2023-08-17T06:47:38;27.30;1.00
18317;DHT22;9284;52.298;21.164;2023-08-17T06:50:07;27.30;1.00
18317;DHT22;9284;52.298;21.164;2023-08-17T06:52:39;27.40;1.00
18317;DHT22;9284;52.298;21.164;2023-08-17T06:55:08;27.60;1.00
18317;DHT22;9284;52.298;21.164;2023-08-17T06:57:37;27.70;1.00
18317;DHT22;9284;52.298;21.164;2023-08-17T07:00:08;28.00;1.00
18317;DHT22;9284;52.298;21.164;2023-08-17T07:02:38;28.30;1.00
18317;DHT22;9284;52.298;21.164;2023-08-17T07:05:19;28.70;1.00
18317;DHT22;9284;52.298;21.164;2023-08-17T07:07:48;28.70;1.00
18317;DHT22;9284;52.298;21.164;2023-08-17T07:10:16;28.80;1.00
18317;DHT22;9284;52.298;21.164;2023-08-17T07:12:45;28.70;1.00
18317;DHT22;9284;52.298;21.164;2023-08-17T07:15:15;28.50;1.00
18317;DHT22;9284;52.298;21.164;2023-08-17T07:17:44;28.50;1.00
18317;DHT22;9284;52.298;21.164;2023-08-17T07:20:12;28.70;1.00
18317;DHT22;9284;52.298;21.164;2023-08-17T07:22:43;29.20;1.00
18317;DHT22;9284;52.298;21.164;2023-08-17T07:25:12;29.90;1.00
18317;DHT22;9284;52.298;21.164;2023-08-17T07:27:41;30.60;1.00
18317;DHT22;9284;52.298;21.164;2023-08-17T07:30:11;31.00;1.00
18317;DHT22;9284;52.298;21.164;2023-08-17T07:32:41;31.30;1.00
18317;DHT22;9284;52.298;21.164;2023-08-17T07:35:09;31.60;1.00
18317;DHT22;9284;52.298;21.164;2023-08-17T07:37:38;31.20;1.00
18317;DHT22;9284;52.298;21.164;2023-08-17T07:40:07;31.00;1.00
18317;DHT22;9284;52.298;21.164;2023-08-17T07:42:37;30.60;1.00
18317;DHT22;9284;52.298;21.164;2023-08-17T07:45:06;30.80;1.00
18317;DHT22;9284;52.298;21.164;2023-08-17T07:47:35;30.40;1.00
18317;DHT22;9284;52.298;21.164;2023-08-17T07:50:07;30.10;1.00
18317;DHT22;9284;52.298;21.164;2023-08-17T07:52:36;30.10;1.00
18317;DHT22;9284;52.298;21.164;2023-08-17T07:55:04;30.30;1.00
18317;DHT22;9284;52.298;21.164;2023-08-17T07:57:33;30.40;1.00
18317;DHT22;9284;52.298;21.164;2023-08-17T08:00:02;30.20;1.00
18317;DHT22;9284;52.298;21.164;2023-08-17T08:02:34;30.00;1.00
18317;DHT22;9284;52.298;21.164;2023-08-17T08:05:02;30.00;1.00
18317;DHT22;9284;52.298;21.164;2023-08-17T08:07:33;30.20;1.00
18317;DHT22;9284;52.298;21.164;2023-08-17T08:10:01;29.90;1.00
18317;DHT22;9284;52.298;21.164;2023-08-17T08:12:30;30.00;1.00
18317;DHT22;9284;52.298;21.164;2023-08-17T08:14:59;30.10;1.00
18317;DHT22;9284;52.298;21.164;2023-08-17T08:17:28;29.70;1.00
18317;DHT22;9284;52.298;21.164;2023-08-17T08:19:57;29.60;1.00
18317;DHT22;9284;52.298;21.164;2023-08-17T08:22:27;29.70;1.00
18317;DHT22;9284;52.298;21.164;2023-08-17T08:24:58;29.70;1.00
18317;DHT22;9284;52.298;21.164;2023-08-17T08:27:26;29.80;1.00
18317;DHT22;9284;52.298;21.164;2023-08-17T08:29:55;30.00;1.00
18317;DHT22;9284;52.298;21.164;2023-08-17T08:32:24;29.90;1.00
18317;DHT22;9284;52.298;21.164;2023-08-17T08:34:55;30.10;1.00
18317;DHT22;9284;52.298;21.164;2023-08-17T08:37:24;30.20;1.00
18317;DHT22;9284;52.298;21.164;2023-08-17T08:39:54;30.50;1.00
18317;DHT22;9284;52.298;21.164;2023-08-17T08:42:25;31.30;1.00
18317;DHT22;9284;52.298;21.164;2023-08-17T08:44:53;32.00;1.00
18317;DHT22;9284;52.298;21.164;2023-08-17T08:47:22;32.60;1.00
18317;DHT22;9284;52.298;21.164;2023-08-17T08:49:58;32.80;1.00
18317;DHT22;9284;52.298;21.164;2023-08-17T08:52:33;32.50;1.00
18317;DHT22;9284;52.298;21.164;2023-08-17T08:55:11;32.00;1.00
18317;DHT22;9284;52.298;21.164;2023-08-17T08:57:46;32.10;1.00
18317;DHT22;9284;52.298;21.164;2023-08-17T09:00:18;31.90;1.00
18317;DHT22;9284;52.298;21.164;2023-08-17T09:02:48;31.80;1.00
18317;DHT22;9284;52.298;21.164;2023-08-17T09:05:17;31.80;1.00
18317;DHT22;9284;52.298;21.164;2023-08-17T09:07:47;31.90;1.00
18317;DHT22;9284;52.298;21.164;2023-08-17T09:10:16;32.00;1.00
18317;DHT22;9284;52.298;21.164;2023-08-17T09:12:47;32.20;1.00
18317;DHT22;9284;52.298;21.164;2023-08-17T09:15:16;32.60;1.00
18317;DHT22;9284;52.298;21.164;2023-08-17T09:17:44;32.90;1.00
18317;DHT22;9284;52.298;21.164;2023-08-17T09:20:36;33.40;1.00
18317;DHT22;9284;52.298;21.164;2023-08-17T09:23:11;33.30;1.00
18317;DHT22;9284;52.298;21.164;2023-08-17T09:25:42;33.60;1.00
18317;DHT22;9284;52.298;21.164;2023-08-17T09:28:12;33.90;1.00
18317;DHT22;9284;52.298;21.164;2023-08-17T09:30:52;33.30;1.00
18317;DHT22;9284;52.298;21.164;2023-08-17T09:33:21;33.40;1.00
18317;DHT22;9284;52.298;21.164;2023-08-17T09:35:51;33.70;1.00
18317;DHT22;9284;52.298;21.164;2023-08-17T09:38:25;33.60;1.00
18317;DHT22;9284;52.298;21.164;2023-08-17T09:40:54;33.60;1.00
18317;DHT22;9284;52.298;21.164;2023-08-17T09:43:24;33.50;1.00
18317;DHT22;9284;52.298;21.164;2023-08-17T09:45:55;33.40;1.00
18317;DHT22;9284;52.298;21.164;2023-08-17T09:48:25;33.10;1.00
18317;DHT22;9284;52.298;21.164;2023-08-17T09:50:59;32.60;1.00
18317;DHT22;9284;52.298;21.164;2023-08-17T09:53:29;32.50;1.00
18317;DHT22;9284;52.298;21.164;2023-08-17T09:56:04;32.40;1.00
18317;DHT22;9284;52.298;21.164;2023-08-17T09:58:35;32.60;1.00
18317;DHT22;9284;52.298;21.164;2023-08-17T10:01:04;33.10;1.00
18317;DHT22;9284;52.298;21.164;2023-08-17T10:03:34;33.10;1.00
18317;DHT22;9284;52.298;21.164;2023-08-17T10:06:05;32.70;1.00
18317;DHT22;9284;52.298;21.164;2023-08-17T10:08:39;32.60;1.00
18317;DHT22;9284;52.298;21.164;2023-08-17T10:11:12;32.50;1.00
18317;DHT22;9284;52.298;21.164;2023-08-17T10:13:50;32.40;1.00
18317;DHT22;9284;52.298;21.164;2023-08-17T10:16:22;32.30;1.00
18317;DHT22;9284;52.298;21.164;2023-08-17T10:18:57;32.30;1.00
18317;DHT22;9284;52.298;21.164;2023-08-17T10:21:28;32.50;1.00
18317;DHT22;9284;52.298;21.164;2023-08-17T10:23:57;32.50;1.00
18317;DHT22;9284;52.298;21.164;2023-08-17T10:26:26;32.60;1.00
18317;DHT22;9284;52.298;21.164;2023-08-17T10:28:57;32.40;1.00
18317;DHT22;9284;52.298;21.164;2023-08-17T10:31:38;32.50;1.00
18317;DHT22;9284;52.298;21.164;2023-08-17T10:34:07;32.60;1.00
18317;DHT22;9284;52.298;21.164;2023-08-17T10:36:37;32.90;1.00
18317;DHT22;9284;52.298;21.164;2023-08-17T10:39:22;33.20;1.00
18317;DHT22;9284;52.298;21.164;2023-08-17T10:41:56;33.50;1.00
18317;DHT22;9284;52.298;21.164;2023-08-17T10:44:44;33.80;1.00
18317;DHT22;9284;52.298;21.164;2023-08-17T10:47:20;33.90;1.00
18317;DHT22;9284;52.298;21.164;2023-08-17T10:49:50;33.90;1.00
18317;DHT22;9284;52.298;21.164;2023-08-17T10:52:27;34.30;1.00
18317;DHT22;9284;52.298;21.164;2023-08-17T10:54:56;34.50;1.00
18317;DHT22;9284;52.298;21.164;2023-08-17T10:57:29;34.60;1.00
18317;DHT22;9284;52.298;21.164;2023-08-17T11:00:19;34.90;1.00
18317;DHT22;9284;52.298;21.164;2023-08-17T11:02:56;35.30;1.00
18317;DHT22;9284;52.298;21.164;2023-08-17T11:05:36;35.20;1.00
18317;DHT22;9284;52.298;21.164;2023-08-17T11:08:06;35.50;1.00
18317;DHT22;9284;52.298;21.164;2023-08-17T11:10:36;35.90;1.00
18317;DHT22;9284;52.298;21.164;2023-08-17T11:13:05;35.70;1.00
18317;DHT22;9284;52.298;21.164;2023-08-17T11:15:41;35.80;1.00
18317;DHT22;9284;52.298;21.164;2023-08-17T11:18:12;35.70;1.00
18317;DHT22;9284;52.298;21.164;2023-08-17T11:20:41;35.70;1.00
18317;DHT22;9284;52.298;21.164;2023-08-17T11:23:10;35.40;1.00
18317;DHT22;9284;52.298;21.164;2023-08-17T11:25:41;35.40;1.00
18317;DHT22;9284;52.298;21.164;2023-08-17T11:28:09;35.70;1.00
18317;DHT22;9284;52.298;21.164;2023-08-17T11:30:39;35.60;1.00
18317;DHT22;9284;52.298;21.164;2023-08-17T11:33:13;35.80;1.00
18317;DHT22;9284;52.298;21.164;2023-08-17T11:35:41;35.50;1.00
18317;DHT22;9284;52.298;21.164;2023-08-17T11:38:10;35.50;1.00
18317;DHT22;9284;52.298;21.164;2023-08-17T11:40:38;35.60;1.00
18317;DHT22;9284;52.298;21.164;2023-08-17T11:43:07;35.30;1.00
18317;DHT22;9284;52.298;21.164;2023-08-17T11:45:36;34.90;1.00
18317;DHT22;9284;52.298;21.164;2023-08-17T11:48:06;34.90;1.00
18317;DHT22;9284;52.298;21.164;2023-08-17T11:50:34;34.60;1.00
18317;DHT22;9284;52.298;21.164;2023-08-17T11:53:06;34.40;1.00
18317;DHT22;9284;52.298;21.164;2023-08-17T11:55:34;34.10;1.00
18317;DHT22;9284;52.298;21.164;2023-08-17T11:58:03;33.70;1.00
18317;DHT22;9284;52.298;21.164;2023-08-17T12:00:39;33.60;1.00
18317;DHT22;9284;52.298;21.164;2023-08-17T12:03:13;33.50;1.00
18317;DHT22;9284;52.298;21.164;2023-08-17T12:05:44;33.40;1.00
18317;DHT22;9284;52.298;21.164;2023-08-17T12:08:13;33.20;1.00
18317;DHT22;9284;52.298;21.164;2023-08-17T12:10:44;33.30;1.00
18317;DHT22;9284;52.298;21.164;2023-08-17T12:13:13;33.30;1.00
18317;DHT22;9284;52.298;21.164;2023-08-17T12:15:43;33.30;1.00
18317;DHT22;9284;52.298;21.164;2023-08-17T12:18:16;33.20;1.00
18317;DHT22;9284;52.298;21.164;2023-08-17T12:20:52;33.30;1.00
18317;DHT22;9284;52.298;21.164;2023-08-17T12:23:21;33.40;1.00
18317;DHT22;9284;52.298;21.164;2023-08-17T12:25:53;33.40;1.00
18317;DHT22;9284;52.298;21.164;2023-08-17T12:28:22;33.40;1.00
18317;DHT22;9284;52.298;21.164;2023-08-17T12:30:59;33.30;1.00
18317;DHT22;9284;52.298;21.164;2023-08-17T12:33:28;33.70;1.00
18317;DHT22;9284;52.298;21.164;2023-08-17T12:35:57;33.90;1.00
18317;DHT22;9284;52.298;21.164;2023-08-17T12:38:25;34.10;1.00
18317;DHT22;9284;52.298;21.164;2023-08-17T12:40:54;34.20;1.00
18317;DHT22;9284;52.298;21.164;2023-08-17T12:43:22;34.20;1.00
18317;DHT22;9284;52.298;21.164;2023-08-17T12:45:51;34.30;1.00
18317;DHT22;9284;52.298;21.164;2023-08-17T12:48:19;34.30;1.00
18317;DHT22;9284;52.298;21.164;2023-08-17T12:50:49;33.80;1.00
18317;DHT22;9284;52.298;21.164;2023-08-17T12:53:17;33.90;1.00
18317;DHT22;9284;52.298;21.164;2023-08-17T12:55:46;33.80;1.00
18317;DHT22;9284;52.298;21.164;2023-08-17T12:58:14;33.80;1.00
18317;DHT22;9284;52.298;21.164;2023-08-17T13:00:43;33.70;1.00
18317;DHT22;9284;52.298;21.164;2023-08-17T13:03:11;33.70;1.00
18317;DHT22;9284;52.298;21.164;2023-08-17T13:05:41;33.60;1.00
18317;DHT22;9284;52.298;21.164;2023-08-17T13:08:11;33.40;1.00
18317;DHT22;9284;52.298;21.164;2023-08-17T13:10:40;33.50;1.00
18317;DHT22;9284;52.298;21.164;2023-08-17T13:13:08;33.50;1.00
18317;DHT22;9284;52.298;21.164;2023-08-17T13:15:37;33.60;1.00
18317;DHT22;9284;52.298;21.164;2023-08-17T13:18:05;33.30;1.00
18317;DHT22;9284;52.298;21.164;2023-08-17T13:20:33;33.20;1.00
18317;DHT22;9284;52.298;21.164;2023-08-17T13:23:03;33.10;1.00
18317;DHT22;9284;52.298;21.164;2023-08-17T13:25:33;33.10;1.00
18317;DHT22;9284;52.298;21.164;2023-08-17T13:28:02;33.10;1.00
18317;DHT22;9284;52.298;21.164;2023-08-17T13:30:30;33.20;1.00
18317;DHT22;9284;52.298;21.164;2023-08-17T13:32:59;33.40;1.00
18317;DHT22;9284;52.298;21.164;2023-08-17T13:35:27;33.40;1.00
18317;DHT22;9284;52.298;21.164;2023-08-17T13:37:56;33.70;1.00
18317;DHT22;9284;52.298;21.164;2023-08-17T13:40:25;33.60;1.00
18317;DHT22;9284;52.298;21.164;2023-08-17T13:42:55;33.50;1.00
18317;DHT22;9284;52.298;21.164;2023-08-17T13:45:25;33.60;1.00
18317;DHT22;9284;52.298;21.164;2023-08-17T13:47:53;33.70;1.00
18317;DHT22;9284;52.298;21.164;2023-08-17T13:50:22;33.70;1.00
18317;DHT22;9284;52.298;21.164;2023-08-17T13:52:50;33.90;1.00
18317;DHT22;9284;52.298;21.164;2023-08-17T13:55:19;34.00;1.00
18317;DHT22;9284;52.298;21.164;2023-08-17T13:57:47;33.90;1.00
18317;DHT22;9284;52.298;21.164;2023-08-17T14:00:17;33.90;1.00
18317;DHT22;9284;52.298;21.164;2023-08-17T14:02:45;34.00;1.00
18317;DHT22;9284;52.298;21.164;2023-08-17T14:05:14;34.10;1.00
18317;DHT22;9284;52.298;21.164;2023-08-17T14:07:42;34.10;1.00
18317;DHT22;9284;52.298;21.164;2023-08-17T14:10:11;34.20;1.00
18317;DHT22;9284;52.298;21.164;2023-08-17T14:12:55;34.10;1.00
18317;DHT22;9284;52.298;21.164;2023-08-17T14:15:24;34.00;1.00
18317;DHT22;9284;52.298;21.164;2023-08-17T14:17:53;33.90;1.00
18317;DHT22;9284;52.298;21.164;2023-08-17T14:20:21;33.80;1.00
18317;DHT22;9284;52.298;21.164;2023-08-17T14:22:50;33.80;1.00
18317;DHT22;9284;52.298;21.164;2023-08-17T14:25:18;33.80;1.00
18317;DHT22;9284;52.298;21.164;2023-08-17T14:27:46;33.60;1.00
18317;DHT22;9284;52.298;21.164;2023-08-17T14:30:15;33.60;1.00
18317;DHT22;9284;52.298;21.164;2023-08-17T14:32:44;33.60;1.00
18317;DHT22;9284;52.298;21.164;2023-08-17T14:35:13;33.40;1.00
18317;DHT22;9284;52.298;21.164;2023-08-17T14:37:41;33.30;1.00
18317;DHT22;9284;52.298;21.164;2023-08-17T14:40:10;33.40;1.00
18317;DHT22;9284;52.298;21.164;2023-08-17T14:42:39;33.30;1.00
18317;DHT22;9284;52.298;21.164;2023-08-17T14:45:08;33.30;1.00
18317;DHT22;9284;52.298;21.164;2023-08-17T14:47:37;33.20;1.00
18317;DHT22;9284;52.298;21.164;2023-08-17T14:50:07;33.10;1.00
18317;DHT22;9284;52.298;21.164;2023-08-17T14:52:36;33.10;1.00
18317;DHT22;9284;52.298;21.164;2023-08-17T14:55:04;33.20;1.00
18317;DHT22;9284;52.298;21.164;2023-08-17T14:57:33;33.10;1.00
18317;DHT22;9284;52.298;21.164;2023-08-17T15:00:02;33.10;1.00
18317;DHT22;9284;52.298;21.164;2023-08-17T15:02:31;33.10;1.00
18317;DHT22;9284;52.298;21.164;2023-08-17T15:04:59;33.00;1.00
18317;DHT22;9284;52.298;21.164;2023-08-17T15:07:29;33.00;1.00
18317;DHT22;9284;52.298;21.164;2023-08-17T15:10:05;32.80;1.00
18317;DHT22;9284;52.298;21.164;2023-08-17T15:12:34;32.70;1.00
18317;DHT22;9284;52.298;21.164;2023-08-17T15:15:03;32.60;1.00
18317;DHT22;9284;52.298;21.164;2023-08-17T15:17:32;32.70;1.00
18317;DHT22;9284;52.298;21.164;2023-08-17T15:20:00;32.80;1.00
18317;DHT22;9284;52.298;21.164;2023-08-17T15:22:33;32.80;1.00
18317;DHT22;9284;52.298;21.164;2023-08-17T15:25:02;32.80;1.00
18317;DHT22;9284;52.298;21.164;2023-08-17T15:27:31;32.80;1.00
18317;DHT22;9284;52.298;21.164;2023-08-17T15:29:59;32.80;1.00
18317;DHT22;9284;52.298;21.164;2023-08-17T15:32:28;32.70;1.00
18317;DHT22;9284;52.298;21.164;2023-08-17T15:34:56;32.70;1.00
18317;DHT22;9284;52.298;21.164;2023-08-17T15:37:25;32.70;1.00
18317;DHT22;9284;52.298;21.164;2023-08-17T15:39:57;32.70;1.00
18317;DHT22;9284;52.298;21.164;2023-08-17T15:42:26;32.70;1.00
18317;DHT22;9284;52.298;21.164;2023-08-17T15:44:54;32.70;1.00
18317;DHT22;9284;52.298;21.164;2023-08-17T15:47:23;32.80;1.00
18317;DHT22;9284;52.298;21.164;2023-08-17T15:49:52;32.70;1.00
18317;DHT22;9284;52.298;21.164;2023-08-17T15:52:20;32.60;1.00
18317;DHT22;9284;52.298;21.164;2023-08-17T15:54:49;32.50;1.00
18317;DHT22;9284;52.298;21.164;2023-08-17T15:57:18;32.40;1.00
18317;DHT22;9284;52.298;21.164;2023-08-17T15:59:47;32.30;1.00